Aeroporto :
LOGIN :

Iscrizione | Disclaimer

   EN    FR    IT 

 










Sommario :    VFR   VFR Marginale   IFR   IFR Intensivo   IFR Molto Intensivo
Visibilità : 
Base nubi : 
>= 8 km
>= 3000ft
5 / 8 km
1000 / 3000 ft
1500m / 5 km
500 / 1000 ft
800 / 1500m
200 / 500 ft
< 800m
< 200 ft
Simboli :   Temporali  Nebbia  Neve Forte  Precipitazioni Forti  Vento > 20 kt
SIGMETs :   Varie  Temporali  Ghiacco  Turbolenza  Onda orograficha  Ceneri Vulcaniche






- Altitudine del aeroporto : 580 ft


LFOA - Avord

ULTIMO METAR :
  • 162100Z AUTO 13006KT CAVOK 20/17 Q1010

METARs OBSOLETI :
  • 162030Z AUTO 13009KT 9999 FEW039/// BKN120/// BKN140/// ///TCU 20/18 Q1010
  • 162000Z AUTO 13008KT 100V160 9999 ///TCU 20/16 Q1010
  • 161930Z AUTO 11008KT CAVOK 20/16 Q1009
  • 161900Z AUTO 14006KT 9999 -RA //////TCU 19/17 Q1009
  • 161830Z AUTO 15004KT 7000 -RA ///CB 20/17 Q1009 TEMPO 27010G25KT 4000 SHRA
  • 161800Z AUTO 14006KT 5000 RA BR ///CB 21/17 Q1009 TEMPO 27020G40KT 2000 TSRA

TAF TAF LFOA
Valido dal 16 a 15 ore il 17 a 15 ore UTC


161400Z 1615/1715 20005KT CAVOK TX29/1615Z TN15/1705Z
TEMPO 1615/1623 27010G25KT 4000 SHRA SCT040CB
PROB40
TEMPO 1615/1620 2000 TSRA BKN040CB
PROB30
TEMPO 1615/1620 27020G40KT TSGS
PROB30
TEMPO 1701/1707 2000 TSRA BKN003 BKN050CB



MetMap, La meteo Aeronautica in un colpo d'occhio ! - Copyright ORBIFLY Dicembre 2007 - Disclaimer

ORBIFLY MET'MAP TEAM :

Programmazione e sviluppo : Alexandra Zaïnal
Concezione : Baudouin d'Aumeries
Supporto tecnico e logistico : Manuel Goepfert
Aiuto : Marc-Olivier Méhu
Aiuto per la traduzione : Arnaldo La Scala




FONTI E CREDITI :

   NOAA